createdAt,value
2023-02-02T00:01:28.135Z,100.00
2023-02-02T00:03:57.080Z,100.00
2023-02-02T00:06:26.815Z,100.00
2023-02-02T00:08:58.065Z,100.00
2023-02-02T00:11:26.650Z,100.00
2023-02-02T00:13:54.719Z,100.00
2023-02-02T00:16:39.192Z,100.00
2023-02-02T00:19:09.558Z,100.00
2023-02-02T00:21:38.241Z,100.00
2023-02-02T00:24:08.814Z,100.00
2023-02-02T00:26:36.731Z,100.00
2023-02-02T00:29:05.544Z,100.00
2023-02-02T00:31:33.748Z,100.00
2023-02-02T00:34:01.835Z,100.00
2023-02-02T00:36:29.858Z,100.00
2023-02-02T00:38:58.829Z,100.00
2023-02-02T00:41:27.939Z,100.00
2023-02-02T00:44:09.592Z,100.00
2023-02-02T00:46:40.712Z,100.00
2023-02-02T00:49:08.555Z,100.00
2023-02-02T00:51:36.953Z,100.00
2023-02-02T00:54:05.259Z,100.00
2023-02-02T00:56:35.733Z,100.00
2023-02-02T00:59:03.643Z,100.00
2023-02-02T01:01:31.407Z,100.00
2023-02-02T01:03:59.989Z,100.00
2023-02-02T01:06:28.152Z,100.00
2023-02-02T01:08:55.999Z,100.00
2023-02-02T01:11:25.625Z,100.00
2023-02-02T01:13:55.335Z,100.00
2023-02-02T01:16:23.487Z,100.00
2023-02-02T01:18:52.154Z,100.00
2023-02-02T01:21:19.983Z,100.00
2023-02-02T01:23:48.034Z,100.00
2023-02-02T01:26:16.522Z,100.00
2023-02-02T01:28:44.658Z,100.00
2023-02-02T01:31:15.923Z,100.00
2023-02-02T01:33:44.798Z,100.00
2023-02-02T01:36:16.019Z,100.00
2023-02-02T01:38:44.234Z,100.00
2023-02-02T01:41:14.603Z,100.00
2023-02-02T01:43:57.293Z,100.00
2023-02-02T01:46:29.491Z,100.00
2023-02-02T01:49:04.868Z,100.00
2023-02-02T01:51:39.615Z,100.00
2023-02-02T01:54:10.392Z,100.00
2023-02-02T01:56:42.392Z,100.00
2023-02-02T01:59:11.978Z,100.00
2023-02-02T02:01:41.544Z,100.00
2023-02-02T02:04:09.334Z,100.00
2023-02-02T02:06:37.216Z,100.00
2023-02-02T02:09:07.358Z,100.00
2023-02-02T02:11:37.167Z,100.00
2023-02-02T02:14:24.567Z,100.00
2023-02-02T02:17:06.763Z,100.00
2023-02-02T02:20:12.575Z,100.00
2023-02-02T02:23:18.707Z,100.00
2023-02-02T02:26:25.754Z,100.00
2023-02-02T02:29:18.593Z,100.00
2023-02-02T02:32:06.653Z,100.00
2023-02-02T02:34:46.447Z,100.00
2023-02-02T02:37:20.248Z,100.00
2023-02-02T02:39:55.574Z,100.00
2023-02-02T02:42:27.820Z,100.00
2023-02-02T02:44:57.378Z,100.00
2023-02-02T02:47:26.880Z,100.00
2023-02-02T02:49:54.693Z,100.00
2023-02-02T02:52:22.622Z,100.00
2023-02-02T02:54:52.675Z,100.00
2023-02-02T02:57:57.458Z,100.00
2023-02-02T03:00:47.436Z,100.00
2023-02-02T03:03:34.535Z,100.00
2023-02-02T03:06:07.447Z,100.00
2023-02-02T03:08:39.956Z,100.00
2023-02-02T03:11:11.307Z,100.00
2023-02-02T03:13:40.771Z,100.00
2023-02-02T03:16:08.797Z,100.00
2023-02-02T03:18:38.746Z,100.00
2023-02-02T03:21:06.936Z,100.00
2023-02-02T03:23:35.176Z,100.00
2023-02-02T03:26:03.087Z,100.00
2023-02-02T03:28:31.370Z,100.00
2023-02-02T03:31:02.200Z,100.00
2023-02-02T03:33:31.854Z,100.00
2023-02-02T03:36:01.027Z,100.00
2023-02-02T03:38:28.829Z,100.00
2023-02-02T03:40:56.738Z,100.00
2023-02-02T03:43:25.516Z,100.00
2023-02-02T03:45:57.676Z,100.00
2023-02-02T03:48:25.762Z,100.00
2023-02-02T03:50:53.772Z,100.00
2023-02-02T03:53:23.136Z,100.00
2023-02-02T03:55:50.932Z,100.00
2023-02-02T03:58:22.090Z,100.00
2023-02-02T04:00:50.196Z,100.00
2023-02-02T04:03:17.973Z,100.00
2023-02-02T04:05:45.809Z,100.00
2023-02-02T04:08:13.534Z,100.00
2023-02-02T04:10:43.267Z,100.00
2023-02-02T04:13:11.101Z,100.00
2023-02-02T04:15:39.064Z,100.00
2023-02-02T04:18:07.027Z,100.00
2023-02-02T04:20:34.895Z,100.00
2023-02-02T04:23:02.792Z,100.00
2023-02-02T04:25:32.457Z,100.00
2023-02-02T04:28:01.577Z,100.00
2023-02-02T04:30:29.487Z,100.00
2023-02-02T04:32:57.237Z,100.00
2023-02-02T04:35:25.270Z,100.00
2023-02-02T04:37:53.231Z,100.00
2023-02-02T04:40:21.389Z,100.00
2023-02-02T04:42:49.188Z,100.00
2023-02-02T04:45:18.901Z,100.00
2023-02-02T04:47:46.691Z,100.00
2023-02-02T04:50:14.706Z,100.00
2023-02-02T04:52:42.648Z,100.00
2023-02-02T04:55:10.682Z,100.00
2023-02-02T04:57:38.551Z,100.00
2023-02-02T05:00:07.525Z,100.00
2023-02-02T05:02:38.415Z,100.00
2023-02-02T05:05:08.049Z,100.00
2023-02-02T05:07:35.919Z,100.00
2023-02-02T05:10:03.738Z,100.00
2023-02-02T05:12:31.787Z,100.00
2023-02-02T05:15:00.996Z,100.00
2023-02-02T05:17:29.079Z,100.00
2023-02-02T05:19:58.582Z,100.00
2023-02-02T05:22:27.027Z,100.00
2023-02-02T05:24:54.898Z,100.00
2023-02-02T05:27:23.255Z,100.00
2023-02-02T05:29:51.077Z,100.00
2023-02-02T05:32:18.850Z,100.00
2023-02-02T05:34:46.722Z,100.00
2023-02-02T05:37:16.032Z,100.00
2023-02-02T05:39:44.039Z,100.00
2023-02-02T05:42:11.879Z,100.00
2023-02-02T05:44:39.664Z,100.00
2023-02-02T05:47:07.456Z,100.00
2023-02-02T05:49:35.207Z,100.00
2023-02-02T05:52:03.002Z,100.00
2023-02-02T05:54:32.248Z,100.00
2023-02-02T05:57:01.284Z,100.00
2023-02-02T05:59:29.304Z,100.00
2023-02-02T06:01:57.110Z,100.00
2023-02-02T06:04:24.973Z,100.00
2023-02-02T06:06:52.729Z,100.00
2023-02-02T06:09:20.559Z,100.00
2023-02-02T06:11:49.759Z,100.00
2023-02-02T06:14:17.612Z,100.00
2023-02-02T06:16:45.678Z,100.00
2023-02-02T06:19:13.522Z,100.00
2023-02-02T06:21:41.357Z,100.00
2023-02-02T06:24:09.224Z,100.00
2023-02-02T06:26:37.511Z,100.00
2023-02-02T06:29:07.862Z,100.00
2023-02-02T06:31:35.662Z,100.00
2023-02-02T06:34:03.549Z,100.00
2023-02-02T06:36:31.297Z,100.00
2023-02-02T06:38:59.579Z,100.00
2023-02-02T06:41:27.556Z,100.00
2023-02-02T06:43:55.524Z,100.00
2023-02-02T06:46:24.701Z,100.00
2023-02-02T06:48:52.559Z,100.00
2023-02-02T06:51:20.491Z,100.00
2023-02-02T06:53:49.948Z,100.00
2023-02-02T06:56:18.243Z,100.00
2023-02-02T06:58:46.238Z,100.00
2023-02-02T07:01:15.416Z,100.00
2023-02-02T07:03:44.625Z,100.00
2023-02-02T07:06:17.486Z,100.00
2023-02-02T07:08:45.688Z,100.00
2023-02-02T07:11:22.472Z,100.00
2023-02-02T07:13:51.430Z,100.00
2023-02-02T07:16:19.950Z,100.00
2023-02-02T07:18:49.469Z,100.00
2023-02-02T07:21:19.793Z,100.00
2023-02-02T07:23:47.927Z,100.00
2023-02-02T07:26:16.901Z,100.00
2023-02-02T07:28:45.562Z,100.00
2023-02-02T07:31:14.811Z,100.00
2023-02-02T07:33:43.493Z,100.00
2023-02-02T07:36:13.289Z,100.00
2023-02-02T07:38:41.176Z,100.00
2023-02-02T07:41:09.364Z,100.00
2023-02-02T07:43:37.673Z,100.00
2023-02-02T07:46:08.326Z,100.00
2023-02-02T07:48:36.391Z,100.00
2023-02-02T07:51:06.464Z,100.00
2023-02-02T07:53:36.176Z,100.00
2023-02-02T07:56:09.188Z,100.00
2023-02-02T07:58:37.341Z,100.00
2023-02-02T08:01:06.536Z,100.00
2023-02-02T08:03:34.469Z,100.00
2023-02-02T08:06:09.266Z,100.00
2023-02-02T08:08:38.451Z,100.00
2023-02-02T08:11:06.532Z,100.00
2023-02-02T08:13:34.482Z,100.00
2023-02-02T08:16:02.291Z,100.00
2023-02-02T08:18:30.070Z,100.00
2023-02-02T08:20:59.806Z,100.00
2023-02-02T08:23:28.004Z,100.00
2023-02-02T08:26:07.141Z,100.00
2023-02-02T08:28:35.403Z,100.00
2023-02-02T08:31:06.925Z,100.00
2023-02-02T08:33:35.077Z,100.00
2023-02-02T08:36:03.188Z,100.00
2023-02-02T08:38:31.344Z,100.00
2023-02-02T08:41:06.993Z,100.00
2023-02-02T08:43:34.864Z,100.00
2023-02-02T08:46:05.481Z,100.00
2023-02-02T08:48:35.152Z,100.00
2023-02-02T08:51:04.058Z,100.00
2023-02-02T08:53:32.346Z,100.00
2023-02-02T08:56:01.870Z,100.00
2023-02-02T08:58:31.790Z,100.00
2023-02-02T09:01:06.306Z,100.00
2023-02-02T09:03:34.076Z,100.00
2023-02-02T09:06:06.272Z,100.00
2023-02-02T09:08:34.634Z,100.00
2023-02-02T09:11:07.441Z,100.00
2023-02-02T09:13:37.267Z,100.00
2023-02-02T09:16:07.849Z,100.00
2023-02-02T09:18:35.906Z,100.00
2023-02-02T09:21:05.545Z,100.00
2023-02-02T09:23:34.256Z,100.00
2023-02-02T09:26:10.688Z,100.00
2023-02-02T09:28:40.507Z,100.00
2023-02-02T09:31:09.025Z,100.00
2023-02-02T09:33:37.367Z,100.00
2023-02-02T09:36:07.050Z,100.00
2023-02-02T09:38:36.334Z,100.00
2023-02-02T09:41:22.607Z,100.00
2023-02-02T09:43:58.278Z,100.00
2023-02-02T09:46:38.074Z,100.00
2023-02-02T09:49:10.831Z,100.00
2023-02-02T09:51:42.334Z,100.00
2023-02-02T09:54:17.116Z,100.00
2023-02-02T09:56:50.748Z,100.00
2023-02-02T09:59:24.402Z,100.00
2023-02-02T10:01:56.854Z,100.00
2023-02-02T10:04:29.067Z,100.00
2023-02-02T10:07:00.205Z,100.00
2023-02-02T10:09:35.298Z,100.00
2023-02-02T10:12:13.738Z,100.00
2023-02-02T10:14:48.417Z,100.00
2023-02-02T10:17:33.396Z,100.00
2023-02-02T10:20:10.484Z,100.00
2023-02-02T10:22:38.287Z,100.00
2023-02-02T10:25:07.259Z,100.00
2023-02-02T10:27:39.895Z,100.00
2023-02-02T10:30:18.871Z,100.00
2023-02-02T10:32:51.309Z,100.00
2023-02-02T10:35:34.294Z,100.00
2023-02-02T10:38:10.492Z,100.00
2023-02-02T10:40:47.550Z,100.00
2023-02-02T10:43:47.168Z,100.00
2023-02-02T10:46:23.429Z,100.00
2023-02-02T10:49:01.666Z,100.00
2023-02-02T10:51:30.486Z,99.22
2023-02-02T10:54:01.144Z,100.00
2023-02-02T10:56:36.670Z,100.00
2023-02-02T10:59:08.319Z,100.00
2023-02-02T11:01:37.574Z,100.00
2023-02-02T11:04:23.034Z,99.73
2023-02-02T11:06:51.069Z,99.11
2023-02-02T11:09:22.452Z,99.20
2023-02-02T11:11:54.518Z,98.87
2023-02-02T11:14:33.678Z,99.22
2023-02-02T11:17:06.137Z,97.31
2023-02-02T11:19:35.401Z,97.46
2023-02-02T11:22:04.289Z,99.22
2023-02-02T11:24:36.840Z,100.00
2023-02-02T11:27:08.113Z,100.00
2023-02-02T11:29:43.535Z,98.46
2023-02-02T11:32:28.466Z,97.89
2023-02-02T11:35:19.216Z,97.35
2023-02-02T11:37:58.781Z,99.53
2023-02-02T11:40:37.050Z,97.36
2023-02-02T11:43:08.399Z,98.58
2023-02-02T11:45:39.219Z,98.73
2023-02-02T11:48:17.017Z,98.42
2023-02-02T11:50:49.618Z,97.99
2023-02-02T11:53:25.465Z,98.61
2023-02-02T11:55:53.705Z,98.79
2023-02-02T11:58:27.648Z,97.51
2023-02-02T12:01:01.240Z,99.08
2023-02-02T12:03:36.132Z,100.00
2023-02-02T12:06:20.215Z,100.00
2023-02-02T12:08:48.750Z,99.09
2023-02-02T12:11:35.546Z,98.61
2023-02-02T12:14:19.519Z,99.95
2023-02-02T12:16:59.227Z,98.63
2023-02-02T12:19:53.020Z,98.91
2023-02-02T12:22:35.296Z,100.00
2023-02-02T12:25:10.432Z,100.00
2023-02-02T12:27:46.419Z,99.31
2023-02-02T12:30:30.912Z,98.50
2023-02-02T12:33:24.860Z,97.78
2023-02-02T12:36:07.243Z,96.13
2023-02-02T12:38:58.465Z,98.59
2023-02-02T12:41:38.989Z,97.39
2023-02-02T12:44:17.113Z,97.80
2023-02-02T12:47:00.667Z,97.67
2023-02-02T12:49:41.724Z,95.39
2023-02-02T12:52:34.816Z,94.17
2023-02-02T12:55:16.381Z,95.55
2023-02-02T12:57:54.217Z,93.90
2023-02-02T13:00:38.364Z,93.87
2023-02-02T13:03:28.856Z,94.63
2023-02-02T13:06:11.555Z,93.06
2023-02-02T13:08:46.880Z,94.34
2023-02-02T13:11:30.830Z,95.51
2023-02-02T13:14:01.225Z,96.64
2023-02-02T13:16:32.636Z,94.15
2023-02-02T13:19:05.643Z,93.95
2023-02-02T13:21:33.931Z,94.11
2023-02-02T13:24:07.848Z,94.51
2023-02-02T13:26:39.512Z,94.39
2023-02-02T13:29:12.867Z,95.81
2023-02-02T13:31:46.534Z,94.26
2023-02-02T13:34:22.060Z,94.58
2023-02-02T13:36:55.795Z,95.09
2023-02-02T13:39:34.643Z,93.90
2023-02-02T13:42:03.386Z,92.78
2023-02-02T13:44:36.698Z,92.47
2023-02-02T13:47:10.903Z,92.65
2023-02-02T13:49:42.893Z,91.86
2023-02-02T13:52:26.436Z,91.57
2023-02-02T13:55:21.874Z,91.91
2023-02-02T13:58:17.307Z,92.69
2023-02-02T14:00:49.620Z,90.30
2023-02-02T14:03:32.218Z,91.06
2023-02-02T14:06:06.900Z,89.81
2023-02-02T14:08:35.596Z,91.27
2023-02-02T14:11:06.751Z,86.33
2023-02-02T14:14:04.676Z,88.00
2023-02-02T14:16:48.674Z,84.88
2023-02-02T14:19:18.017Z,85.53
2023-02-02T14:22:17.921Z,84.55
2023-02-02T14:24:48.888Z,85.15
2023-02-02T14:28:02.393Z,84.77
2023-02-02T14:30:35.046Z,85.90
2023-02-02T14:33:38.209Z,86.20
2023-02-02T14:36:11.192Z,86.20
2023-02-02T14:39:09.015Z,87.35
2023-02-02T14:42:18.065Z,86.63
2023-02-02T14:45:16.894Z,88.32
2023-02-02T14:47:51.458Z,89.35
2023-02-02T14:50:25.430Z,89.58
2023-02-02T14:53:04.695Z,88.83
2023-02-02T14:55:32.573Z,88.93
2023-02-02T14:58:02.781Z,87.58
2023-02-02T15:00:34.017Z,88.97
2023-02-02T15:03:36.056Z,87.30
2023-02-02T15:06:08.767Z,87.85
2023-02-02T15:08:36.868Z,87.92
2023-02-02T15:11:27.701Z,89.86
2023-02-02T15:14:14.513Z,88.68
2023-02-02T15:16:44.271Z,89.98
2023-02-02T15:19:24.167Z,89.49
2023-02-02T15:21:55.385Z,89.57
2023-02-02T15:24:28.302Z,90.11
2023-02-02T15:26:59.980Z,90.19
2023-02-02T15:29:36.349Z,89.89
2023-02-02T15:32:06.897Z,88.71
2023-02-02T15:34:41.987Z,90.14
2023-02-02T15:37:15.948Z,89.33
2023-02-02T15:39:48.956Z,90.11
2023-02-02T15:42:36.888Z,91.88
2023-02-02T15:45:05.242Z,92.92
2023-02-02T15:47:37.133Z,91.90
2023-02-02T15:50:18.397Z,92.04
2023-02-02T15:52:50.068Z,93.64
2023-02-02T15:55:22.777Z,92.35
2023-02-02T15:57:54.101Z,92.94
2023-02-02T16:00:28.027Z,93.58
2023-02-02T16:03:01.735Z,92.72
2023-02-02T16:05:46.241Z,92.51
2023-02-02T16:08:19.176Z,91.54
2023-02-02T16:10:49.379Z,93.25
2023-02-02T16:13:24.901Z,92.75
2023-02-02T16:15:57.233Z,93.49
2023-02-02T16:18:25.222Z,94.83
2023-02-02T16:20:55.614Z,94.53
2023-02-02T16:23:27.879Z,94.32
2023-02-02T16:25:59.609Z,94.79
2023-02-02T16:28:28.270Z,92.82
2023-02-02T16:30:59.796Z,94.25
2023-02-02T16:33:29.840Z,95.02
2023-02-02T16:35:59.086Z,94.10
2023-02-02T16:38:31.666Z,94.43
2023-02-02T16:41:07.463Z,95.35
2023-02-02T16:43:37.950Z,94.80
2023-02-02T16:46:08.855Z,95.44
2023-02-02T16:48:38.449Z,95.24
2023-02-02T16:51:13.184Z,95.29
2023-02-02T16:53:41.041Z,95.99
2023-02-02T16:56:11.091Z,95.40
2023-02-02T16:58:45.200Z,94.54
2023-02-02T17:01:16.255Z,96.62
2023-02-02T17:03:52.604Z,95.33
2023-02-02T17:06:38.685Z,96.80
2023-02-02T17:09:33.209Z,96.52
2023-02-02T17:12:04.771Z,96.42
2023-02-02T17:14:35.652Z,95.05
2023-02-02T17:17:06.146Z,95.78
2023-02-02T17:19:34.535Z,97.50
2023-02-02T17:22:06.280Z,97.26
2023-02-02T17:24:34.276Z,94.80
2023-02-02T17:27:02.968Z,94.86
2023-02-02T17:29:30.747Z,94.61
2023-02-02T17:31:58.560Z,95.33
2023-02-02T17:34:26.370Z,95.07
2023-02-02T17:36:55.143Z,95.05
2023-02-02T17:39:24.340Z,95.69
2023-02-02T17:41:52.556Z,94.48
2023-02-02T17:44:20.371Z,95.05
2023-02-02T17:46:48.153Z,95.91
2023-02-02T17:49:15.957Z,95.06
2023-02-02T17:51:43.783Z,96.29
2023-02-02T17:54:13.181Z,95.53
2023-02-02T17:56:43.331Z,95.29
2023-02-02T17:59:12.251Z,96.37
2023-02-02T18:01:41.889Z,96.15
2023-02-02T18:04:14.092Z,95.31
2023-02-02T18:06:41.643Z,95.91
2023-02-02T18:09:10.501Z,96.84
2023-02-02T18:11:39.915Z,98.39
2023-02-02T18:14:10.544Z,98.79
2023-02-02T18:16:38.416Z,98.17
2023-02-02T18:19:06.181Z,97.53
2023-02-02T18:21:33.959Z,96.75
2023-02-02T18:24:01.979Z,96.50
2023-02-02T18:26:31.339Z,97.53
2023-02-02T18:28:59.839Z,96.86
2023-02-02T18:31:29.069Z,97.46
2023-02-02T18:33:57.143Z,98.22
2023-02-02T18:36:25.063Z,97.56
2023-02-02T18:38:53.923Z,97.38
2023-02-02T18:41:22.599Z,97.23
2023-02-02T18:43:52.867Z,98.42
2023-02-02T18:46:21.033Z,100.00
2023-02-02T18:48:50.354Z,98.76
2023-02-02T18:51:19.541Z,98.50
2023-02-02T18:53:48.272Z,98.00
2023-02-02T18:56:17.286Z,98.93
2023-02-02T18:58:45.302Z,98.67
2023-02-02T19:01:15.731Z,99.20
2023-02-02T19:03:44.174Z,98.40
2023-02-02T19:06:30.512Z,99.70
2023-02-02T19:08:58.348Z,98.20
2023-02-02T19:11:29.540Z,99.75
2023-02-02T19:13:57.687Z,98.15
2023-02-02T19:16:27.171Z,98.47
2023-02-02T19:18:57.036Z,97.66
2023-02-02T19:21:30.925Z,98.58
2023-02-02T19:24:00.736Z,98.89
2023-02-02T19:26:30.369Z,99.16
2023-02-02T19:29:06.932Z,97.71
2023-02-02T19:31:34.746Z,97.08
2023-02-02T19:34:03.655Z,96.17
2023-02-02T19:36:32.774Z,96.77
2023-02-02T19:39:11.987Z,97.23
2023-02-02T19:41:42.404Z,96.27
2023-02-02T19:44:16.314Z,96.01
2023-02-02T19:46:46.912Z,99.24
2023-02-02T19:49:19.139Z,98.02
2023-02-02T19:51:53.625Z,100.00
2023-02-02T19:54:30.471Z,99.85
2023-02-02T19:57:00.538Z,99.06
2023-02-02T19:59:35.370Z,100.00
2023-02-02T20:02:26.677Z,99.45
2023-02-02T20:05:00.603Z,99.99
2023-02-02T20:07:30.240Z,99.65
2023-02-02T20:10:11.284Z,99.85
2023-02-02T20:12:39.515Z,100.00
2023-02-02T20:15:25.514Z,100.00
2023-02-02T20:17:55.978Z,100.00
2023-02-02T20:20:27.445Z,100.00
2023-02-02T20:22:58.377Z,100.00
2023-02-02T20:25:26.256Z,100.00
2023-02-02T20:27:55.006Z,100.00
2023-02-02T20:30:26.724Z,100.00
2023-02-02T20:32:58.035Z,100.00
2023-02-02T20:35:34.302Z,100.00
2023-02-02T20:38:13.211Z,100.00
2023-02-02T20:40:40.966Z,100.00
2023-02-02T20:43:08.957Z,100.00
2023-02-02T20:45:36.770Z,100.00
2023-02-02T20:48:04.607Z,100.00
2023-02-02T20:50:32.612Z,100.00
2023-02-02T20:53:00.391Z,100.00
2023-02-02T20:55:29.521Z,100.00
2023-02-02T20:57:57.312Z,100.00
2023-02-02T21:00:27.672Z,100.00
2023-02-02T21:02:56.344Z,100.00
2023-02-02T21:05:24.272Z,100.00
2023-02-02T21:07:54.914Z,100.00
2023-02-02T21:10:23.458Z,100.00
2023-02-02T21:12:52.848Z,100.00
2023-02-02T21:15:20.606Z,100.00
2023-02-02T21:17:48.464Z,100.00
2023-02-02T21:20:16.542Z,100.00
2023-02-02T21:22:44.285Z,100.00
2023-02-02T21:25:12.464Z,100.00
2023-02-02T21:27:41.187Z,100.00
2023-02-02T21:30:14.010Z,100.00
2023-02-02T21:32:41.881Z,100.00
2023-02-02T21:35:10.503Z,100.00
2023-02-02T21:37:38.483Z,100.00
2023-02-02T21:40:14.529Z,100.00
2023-02-02T21:42:50.176Z,100.00
2023-02-02T21:45:34.628Z,100.00
2023-02-02T21:48:04.182Z,100.00
2023-02-02T21:50:35.084Z,100.00
2023-02-02T21:53:18.921Z,100.00
2023-02-02T21:55:48.450Z,100.00
2023-02-02T21:58:21.884Z,100.00
2023-02-02T22:00:51.683Z,100.00
2023-02-02T22:03:33.743Z,100.00
2023-02-02T22:06:16.961Z,100.00
2023-02-02T22:08:44.774Z,100.00
2023-02-02T22:11:31.808Z,100.00
2023-02-02T22:14:03.759Z,100.00
2023-02-02T22:16:42.296Z,100.00
2023-02-02T22:19:24.980Z,100.00
2023-02-02T22:21:53.971Z,100.00
2023-02-02T22:24:22.055Z,100.00
2023-02-02T22:26:50.119Z,100.00
2023-02-02T22:29:21.302Z,100.00
2023-02-02T22:31:50.517Z,100.00
2023-02-02T22:34:18.310Z,100.00
2023-02-02T22:36:46.046Z,100.00
2023-02-02T22:39:13.934Z,100.00
2023-02-02T22:41:41.658Z,100.00
2023-02-02T22:44:09.431Z,100.00
2023-02-02T22:46:37.248Z,100.00
2023-02-02T22:49:06.393Z,100.00
2023-02-02T22:51:34.145Z,100.00
2023-02-02T22:54:01.900Z,100.00
2023-02-02T22:56:29.808Z,100.00
2023-02-02T22:58:57.566Z,100.00
2023-02-02T23:01:25.399Z,100.00
2023-02-02T23:03:53.283Z,100.00
2023-02-02T23:06:22.378Z,100.00
2023-02-02T23:08:50.151Z,100.00
2023-02-02T23:11:18.060Z,100.00
2023-02-02T23:13:45.959Z,100.00
2023-02-02T23:16:17.248Z,100.00
2023-02-02T23:18:45.040Z,100.00
2023-02-02T23:21:12.760Z,100.00
2023-02-02T23:23:42.483Z,100.00
2023-02-02T23:26:10.406Z,100.00
2023-02-02T23:28:38.159Z,100.00
2023-02-02T23:31:06.335Z,100.00
2023-02-02T23:33:34.252Z,100.00
2023-02-02T23:36:02.017Z,100.00
2023-02-02T23:38:29.801Z,100.00
2023-02-02T23:41:00.254Z,100.00
2023-02-02T23:43:28.109Z,100.00
2023-02-02T23:45:56.078Z,100.00
2023-02-02T23:48:23.847Z,100.00
2023-02-02T23:50:51.941Z,100.00
2023-02-02T23:53:20.294Z,100.00
2023-02-02T23:55:48.089Z,100.00
2023-02-02T23:58:17.330Z,100.00
